Time;durP1;ratioP1;P1;durP2;ratioP2;P2;SDS_P1;SDS_P2;PMS_P1;PMS_P2;Temp;Humidity;BMP_temperature;BMP_pressure;BME280_temperature;BME280_humidity;BME280_pressure;Samples;Min_cycle;Max_cycle;Signal;HPM_P1;HPM_P2
2022/06/23 00:01:05;;;;;;;4.90;2.88;;;;;;;16.60;72.52;97966.94;2607329;28;20499;-75
2022/06/23 00:02:25;;;;;;;3.17;2.88;;;;;;;16.55;72.70;97967.22;2607462;28;20049;-78
2022/06/23 00:03:41;;;;;;;4.13;2.80;;;;;;;16.51;73.07;97958.63;2607504;28;20073;-75
2022/06/23 00:05:07;;;;;;;2.80;2.60;;;;;;;16.50;72.57;97959.59;2607236;28;20090;-74
2022/06/23 00:06:44;;;;;;;6.05;3.17;;;;;;;16.47;72.40;97967.66;2607483;28;20049;-76
2022/06/23 00:08:00;;;;;;;3.33;2.70;;;;;;;16.44;72.87;97967.03;2606000;28;20071;-75
2022/06/23 00:09:36;;;;;;;3.78;3.28;;;;;;;16.42;72.94;97961.81;2607005;28;20049;-75
2022/06/23 00:10:58;;;;;;;5.35;3.00;;;;;;;16.37;73.74;97961.25;2606611;28;20703;-76
2022/06/23 00:12:47;;;;;;;4.25;3.42;;;;;;;16.32;73.93;97960.66;2606880;28;20041;-76
2022/06/23 00:14:13;;;;;;;3.67;2.92;;;;;;;16.29;74.38;97966.13;2607594;28;20603;-75
2022/06/23 00:15:37;;;;;;;3.33;2.92;;;;;;;16.25;75.06;97968.09;2607593;28;20507;-75
2022/06/23 00:16:53;;;;;;;4.28;2.85;;;;;;;16.22;75.24;97963.00;2607437;28;20091;-75
2022/06/23 00:18:19;;;;;;;4.45;3.22;;;;;;;16.15;75.56;97967.78;2607235;28;20045;-75
2022/06/23 00:19:34;;;;;;;3.38;2.95;;;;;;;16.13;75.68;97974.97;2607354;28;20099;-75
2022/06/23 00:21:11;;;;;;;6.90;3.45;;;;;;;16.11;75.30;97974.22;2607419;28;20076;-75
2022/06/23 00:22:30;;;;;;;4.63;2.88;;;;;;;16.12;75.68;97972.41;2607556;28;20061;-74
2022/06/23 00:23:51;;;;;;;4.22;2.97;;;;;;;16.11;75.68;97974.22;2607381;28;20088;-75
2022/06/23 00:25:14;;;;;;;6.57;3.30;;;;;;;16.13;74.99;97980.25;2607210;28;20067;-75
2022/06/23 00:26:33;;;;;;;3.47;3.05;;;;;;;16.13;74.60;97974.97;2606368;28;20496;-75
2022/06/23 00:27:48;;;;;;;4.72;3.15;;;;;;;16.12;75.23;97982.97;2606559;28;20087;-75
2022/06/23 00:29:14;;;;;;;4.18;3.38;;;;;;;16.12;74.95;97988.25;2607077;28;20856;-76
2022/06/23 00:30:37;;;;;;;3.53;3.17;;;;;;;16.03;75.21;97984.34;2607006;28;20151;-75
2022/06/23 00:32:04;;;;;;;5.35;3.20;;;;;;;15.92;75.82;97983.19;2601968;28;20056;-75
2022/06/23 00:33:25;;;;;;;4.43;3.20;;;;;;;15.89;76.62;97980.72;2606017;28;20633;-76
2022/06/23 00:34:50;;;;;;;4.55;3.20;;;;;;;15.84;76.69;97981.88;2607167;28;20060;-76
2022/06/23 00:36:28;;;;;;;4.45;3.33;;;;;;;15.80;76.82;97984.69;2607186;28;20494;-75
2022/06/23 00:37:49;;;;;;;3.97;3.25;;;;;;;15.80;76.58;97983.88;2607021;28;20107;-75
2022/06/23 00:39:23;;;;;;;4.32;3.05;;;;;;;15.73;77.23;97977.22;2607207;28;20102;-75
2022/06/23 00:40:42;;;;;;;3.60;3.30;;;;;;;15.67;77.35;97974.00;2606876;28;20053;-75
2022/06/23 00:41:58;;;;;;;3.53;3.05;;;;;;;15.64;77.55;97978.59;2607397;28;20072;-76
2022/06/23 00:43:13;;;;;;;4.78;3.20;;;;;;;15.60;78.53;97974.44;2606970;28;20076;-75
2022/06/23 00:44:38;;;;;;;4.32;3.00;;;;;;;15.55;78.50;97972.06;2607134;28;20503;-75
2022/06/23 00:46:09;;;;;;;3.67;3.35;;;;;;;15.53;78.58;97973.94;2606988;28;20053;-75
2022/06/23 00:47:35;;;;;;;7.63;3.53;;;;;;;15.49;78.94;97975.88;2606925;28;20059;-75
2022/06/23 00:49:00;;;;;;;3.65;3.35;;;;;;;15.47;79.34;97982.16;2606835;28;20045;-76
2022/06/23 00:50:37;;;;;;;4.40;3.03;;;;;;;15.46;79.96;97985.75;2606936;28;20068;-75
2022/06/23 00:51:57;;;;;;;4.35;3.05;;;;;;;15.44;79.47;97990.25;2607187;28;20622;-75
2022/06/23 00:53:12;;;;;;;4.20;3.58;;;;;;;15.44;79.74;97984.97;2607088;28;20052;-75
2022/06/23 00:54:37;;;;;;;5.63;3.50;;;;;;;15.46;79.59;97996.28;2607095;28;20458;-75
2022/06/23 00:56:11;;;;;;;4.38;3.28;;;;;;;15.40;79.69;97994.84;2606958;28;20045;-75
2022/06/23 00:57:42;;;;;;;4.90;3.50;;;;;;;15.31;79.95;97996.19;2606751;28;20099;-76
2022/06/23 00:59:11;;;;;;;4.25;3.50;;;;;;;15.16;80.72;97999.69;2606908;28;20270;-75
2022/06/23 01:00:36;;;;;;;3.90;3.40;;;;;;;15.11;81.86;97999.91;2606686;28;20055;-76
2022/06/23 01:01:59;;;;;;;3.88;3.25;;;;;;;15.09;82.77;98007.06;2606961;28;20098;-75
2022/06/23 01:03:17;;;;;;;;;;;;;;;15.07;83.03;98012.41;2607668;28;20072;-75
2022/06/23 01:04:57;;;;;;;4.03;3.60;;;;;;;15.06;83.38;98015.97;2607097;28;20390;-75
2022/06/23 01:06:25;;;;;;;4.43;3.40;;;;;;;15.08;82.80;98015.91;2606503;28;20044;-75
2022/06/23 01:08:15;;;;;;;4.20;3.50;;;;;;;15.08;82.82;98011.47;2606721;28;20491;-75
2022/06/23 01:09:36;;;;;;;4.97;3.55;;;;;;;15.05;83.60;98014.28;2606628;28;20480;-75
2022/06/23 01:11:04;;;;;;;6.80;3.60;;;;;;;15.03;84.05;98016.16;2606544;28;20049;-75
2022/06/23 01:12:26;;;;;;;4.95;3.50;;;;;;;15.03;83.86;98017.94;2606789;28;20056;-74
2022/06/23 01:14:00;;;;;;;3.78;3.30;;;;;;;15.01;83.97;98017.16;2606779;28;20484;-75
2022/06/23 01:15:25;;;;;;;5.20;3.70;;;;;;;14.97;84.65;98022.59;2606613;28;20408;-75
2022/06/23 01:16:45;;;;;;;4.28;3.17;;;;;;;14.91;86.17;98024.69;2606726;28;20052;-74
2022/06/23 01:18:25;;;;;;;4.45;3.70;;;;;;;14.89;86.53;98019.53;2606570;28;20354;-75
2022/06/23 01:19:58;;;;;;;7.13;4.03;;;;;;;14.93;86.17;98026.34;2606659;28;20076;-77
2022/06/23 01:21:24;;;;;;;4.63;3.60;;;;;;;14.98;85.78;98023.47;2606633;28;20048;-75
2022/06/23 01:22:48;;;;;;;4.22;3.60;;;;;;;14.97;85.71;98030.50;2606645;28;20061;-78
2022/06/23 01:24:22;;;;;;;4.57;3.08;;;;;;;14.96;85.69;98030.59;2606352;28;20110;-74
2022/06/23 01:26:25;;;;;;;5.30;3.40;;;;;;;14.90;85.49;98041.44;2606636;28;20365;-75
2022/06/23 01:28:00;;;;;;;4.07;3.50;;;;;;;14.87;85.99;98046.88;2606432;28;20056;-75
2022/06/23 01:29:43;;;;;;;5.93;3.50;;;;;;;14.94;85.32;98048.25;2606165;28;20041;-76
2022/06/23 01:31:12;;;;;;;5.43;3.42;;;;;;;14.82;86.00;98042.72;2605196;28;20084;-75
2022/06/23 01:33:13;;;;;;;3.58;3.28;;;;;;;14.72;87.70;98046.75;2606169;28;20061;-75
2022/06/23 01:34:38;;;;;;;5.93;3.65;;;;;;;14.82;88.84;98049.75;2605451;28;20067;-77
2022/06/23 01:36:18;;;;;;;4.88;3.83;;;;;;;14.95;89.20;98050.00;2606286;28;20049;-75
2022/06/23 01:37:50;;;;;;;7.32;3.70;;;;;;;14.92;89.42;98045.72;2606277;28;20477;-75
2022/06/23 01:39:15;;;;;;;4.80;3.80;;;;;;;15.02;89.83;98040.81;2606542;28;20041;-75
2022/06/23 01:40:43;;;;;;;4.50;3.70;;;;;;;14.92;89.68;98040.44;2605677;28;20103;-76
2022/06/23 01:42:06;;;;;;;4.05;3.58;;;;;;;14.83;89.66;98044.41;2605952;28;20053;-75
2022/06/23 01:43:46;;;;;;;5.35;3.38;;;;;;;14.67;89.58;98046.13;2606676;28;20357;-75
2022/06/23 01:45:14;;;;;;;5.40;3.88;;;;;;;14.48;89.89;98044.41;2606602;28;20049;-75
2022/06/23 01:46:43;;;;;;;4.97;4.00;;;;;;;14.36;90.58;98047.63;2606674;28;20045;-76
2022/06/23 01:48:15;;;;;;;4.07;3.50;;;;;;;14.29;91.83;98043.63;2606267;28;20660;-76
2022/06/23 01:49:39;;;;;;;4.53;4.00;;;;;;;14.20;92.10;98048.41;2606477;28;20064;-76
2022/06/23 01:50:56;;;;;;;3.90;3.50;;;;;;;14.20;92.84;98053.66;2606328;28;20056;-76
2022/06/23 01:52:16;;;;;;;5.50;3.92;;;;;;;14.20;93.47;98055.47;2606369;28;20045;-75
2022/06/23 01:53:34;;;;;;;4.07;3.67;;;;;;;14.19;93.04;98053.75;2606357;28;20062;-75
2022/06/23 01:55:01;;;;;;;4.22;3.60;;;;;;;14.22;92.81;98056.25;2606252;28;20436;-76
2022/06/23 01:56:32;;;;;;;5.45;3.78;;;;;;;14.24;92.42;98057.84;2606427;28;20423;-75
2022/06/23 01:57:56;;;;;;;5.28;3.58;;;;;;;14.20;92.54;98068.63;2605768;28;20092;-75
2022/06/23 01:59:17;;;;;;;6.03;3.92;;;;;;;14.20;92.77;98066.00;2606304;28;20132;-75
2022/06/23 02:00:42;;;;;;;5.22;3.78;;;;;;;14.21;92.62;98062.44;2606100;28;20059;-75
2022/06/23 02:02:16;;;;;;;4.28;3.88;;;;;;;14.20;92.49;98061.56;2606573;28;20265;-75
2022/06/23 02:03:41;;;;;;;4.30;3.80;;;;;;;14.23;92.35;98064.03;2606239;28;20049;-75
2022/06/23 02:05:18;;;;;;;4.80;3.75;;;;;;;14.23;92.62;98057.94;2606398;28;20045;-75
2022/06/23 02:06:45;;;;;;;5.68;4.05;;;;;;;14.22;92.11;98056.25;2606524;28;20063;-75
2022/06/23 02:08:26;;;;;;;4.07;3.67;;;;;;;14.15;92.79;98066.22;2606313;28;20102;-75
2022/06/23 02:09:47;;;;;;;4.78;3.90;;;;;;;14.24;92.30;98067.53;2606202;28;20049;-75
2022/06/23 02:11:21;;;;;;;5.97;3.63;;;;;;;14.24;92.80;98068.38;2606065;28;20056;-76
2022/06/23 02:12:49;;;;;;;5.68;4.00;;;;;;;14.26;92.86;98070.94;2605750;28;20053;-75
2022/06/23 02:14:42;;;;;;;4.85;3.85;;;;;;;14.30;92.72;98069.03;2606471;28;20049;-75
2022/06/23 02:16:26;;;;;;;5.10;3.60;;;;;;;14.29;92.96;98069.97;2606117;28;20060;-75
2022/06/23 02:17:58;;;;;;;5.00;3.83;;;;;;;14.32;92.43;98073.28;2605287;28;20499;-75
2022/06/23 02:19:24;;;;;;;5.80;4.07;;;;;;;14.29;92.54;98072.59;2606027;28;20048;-74
2022/06/23 02:20:52;;;;;;;4.82;4.10;;;;;;;14.31;92.16;98076.00;2605944;28;20053;-75
2022/06/23 02:22:16;;;;;;;5.15;4.07;;;;;;;14.30;92.27;98075.13;2606154;28;20110;-75
2022/06/23 02:23:31;;;;;;;4.53;4.10;;;;;;;14.39;92.35;98077.31;2606162;28;20591;-75
2022/06/23 02:25:06;;;;;;;5.80;3.95;;;;;;;14.40;92.59;98075.56;2606114;28;20053;-75
2022/06/23 02:26:41;;;;;;;4.45;4.05;;;;;;;14.36;93.54;98084.50;2606176;28;20099;-76
2022/06/23 02:28:17;;;;;;;5.10;3.85;;;;;;;14.31;93.43;98083.91;2606076;28;20048;-75
2022/06/23 02:29:48;;;;;;;4.22;3.83;;;;;;;14.30;93.24;98090.94;2606196;28;20146;-76
2022/06/23 02:31:13;;;;;;;7.13;3.90;;;;;;;14.30;93.18;98088.28;2605249;28;20052;-75
2022/06/23 02:32:58;;;;;;;4.10;3.70;;;;;;;14.29;93.10;98093.66;2605753;28;20179;-75
2022/06/23 02:34:29;;;;;;;4.47;3.80;;;;;;;14.25;93.01;98098.22;2591195;28;20130;-75
2022/06/23 02:36:16;;;;;;;4.88;4.07;;;;;;;14.23;93.56;98094.81;2606062;28;20057;-75
2022/06/23 02:37:53;;;;;;;4.55;3.90;;;;;;;14.25;93.46;98099.06;2605704;28;20057;-75
2022/06/23 02:39:18;;;;;;;5.18;3.85;;;;;;;14.28;93.28;98100.69;2606013;28;20080;-75
2022/06/23 02:40:42;;;;;;;4.93;4.00;;;;;;;14.29;93.09;98094.50;2606259;28;20075;-75
2022/06/23 02:42:04;;;;;;;4.28;3.70;;;;;;;14.29;92.88;98094.50;2605935;28;20071;-78
2022/06/23 02:43:33;;;;;;;5.68;4.10;;;;;;;14.31;93.06;98102.31;2606343;28;20045;-75
2022/06/23 02:44:57;;;;;;;6.80;3.80;;;;;;;14.30;92.85;98096.19;2605729;28;20053;-76
2022/06/23 02:46:57;;;;;;;5.45;4.32;;;;;;;14.30;92.81;98105.91;2606215;28;20136;-75
2022/06/23 02:48:35;;;;;;;4.68;3.97;;;;;;;14.22;94.11;98115.00;2606160;28;20373;-76
2022/06/23 02:50:11;;;;;;;5.93;4.18;;;;;;;14.26;93.39;98121.84;2606204;28;20145;-75
2022/06/23 02:52:01;;;;;;;4.90;4.10;;;;;;;14.42;93.63;98110.56;2606282;28;20052;-75
2022/06/23 02:53:40;;;;;;;6.80;4.00;;;;;;;14.38;93.16;98122.16;2605889;28;20073;-75
2022/06/23 02:55:17;;;;;;;4.53;3.67;;;;;;;14.38;92.32;98115.13;2605923;28;20072;-75
2022/06/23 02:57:01;;;;;;;5.03;3.80;;;;;;;14.30;92.37;98122.53;2605690;28;20056;-75
2022/06/23 02:58:23;;;;;;;6.00;3.70;;;;;;;14.16;92.96;98120.56;2605622;28;20411;-75
2022/06/23 03:00:05;;;;;;;5.88;4.10;;;;;;;14.01;93.94;98127.41;2605725;28;20056;-75
2022/06/23 03:01:40;;;;;;;5.68;3.97;;;;;;;13.97;94.78;98124.09;2604971;28;20146;-75
2022/06/23 03:03:07;;;;;;;4.40;4.00;;;;;;;13.95;94.92;98125.91;2605852;28;20053;-75
2022/06/23 03:04:34;;;;;;;5.45;4.07;;;;;;;14.00;94.81;98133.59;2605940;28;20393;-75
2022/06/23 03:06:04;;;;;;;6.35;3.88;;;;;;;14.03;94.45;98135.25;2606244;28;20462;-75
2022/06/23 03:07:36;;;;;;;6.53;4.00;;;;;;;14.08;94.42;98141.13;2605812;28;20094;-76
2022/06/23 03:09:04;;;;;;;7.70;4.25;;;;;;;14.11;94.05;98141.84;2605740;28;20615;-75
2022/06/23 03:10:25;;;;;;;4.90;4.40;;;;;;;14.14;93.89;98143.50;2605473;28;20053;-75
2022/06/23 03:12:23;;;;;;;6.20;4.25;;;;;;;14.17;94.06;98148.59;2605943;28;20422;-75
2022/06/23 03:13:54;;;;;;;4.68;4.18;;;;;;;14.21;93.63;98146.69;2604906;28;20611;-75
2022/06/23 03:15:34;;;;;;;4.80;4.00;;;;;;;14.24;94.03;98144.75;2605781;28;20871;-74
2022/06/23 03:16:57;;;;;;;5.65;3.95;;;;;;;14.24;93.74;98154.44;2605499;28;20403;-76
2022/06/23 03:18:21;;;;;;;5.25;4.05;;;;;;;14.22;94.06;98141.34;2605777;28;20080;-75
2022/06/23 03:19:43;;;;;;;7.90;3.90;;;;;;;14.27;93.84;98138.47;2605335;28;20079;-75
2022/06/23 03:21:03;;;;;;;4.67;3.73;;;;;;;14.29;93.90;98135.78;2605636;28;20781;-75
2022/06/23 03:22:39;;;;;;;5.07;4.20;;;;;;;14.29;93.40;98130.53;2605825;28;20551;-76
2022/06/23 03:24:06;;;;;;;3.85;3.55;;;;;;;14.32;93.66;98138.25;2605626;28;20527;-77
2022/06/23 03:25:44;;;;;;;4.22;3.80;;;;;;;14.41;94.11;98129.94;2605702;28;20103;-75
2022/06/23 03:27:22;;;;;;;4.65;4.07;;;;;;;14.45;93.74;98139.38;2605240;28;20053;-74
2022/06/23 03:28:59;;;;;;;4.07;3.67;;;;;;;14.37;94.80;98133.63;2605808;28;20056;-75
2022/06/23 03:30:33;;;;;;;5.28;4.40;;;;;;;14.37;94.29;98133.63;2605706;28;20048;-74
2022/06/23 03:32:13;;;;;;;5.35;4.53;;;;;;;14.32;95.04;98138.25;2606052;28;21059;-77
2022/06/23 03:33:44;;;;;;;5.68;4.30;;;;;;;14.31;94.81;98149.72;2606027;28;20164;-75
2022/06/23 03:35:09;;;;;;;5.20;4.70;;;;;;;14.24;95.09;98144.75;2605839;28;20080;-75
2022/06/23 03:36:28;;;;;;;4.75;4.25;;;;;;;14.30;95.00;98142.75;2605588;28;20067;-76
2022/06/23 03:37:55;;;;;;;6.30;4.05;;;;;;;14.36;94.84;98142.44;2605072;28;20056;-75
2022/06/23 03:42:41;;;;;;;5.45;4.22;;;;;;;14.50;95.24;98144.44;2606790;28;20404;-74
2022/06/23 03:44:09;;;;;;;4.60;3.67;;;;;;;14.51;94.80;98149.59;2607646;28;20048;-75
2022/06/23 03:45:33;;;;;;;5.05;4.43;;;;;;;14.48;94.47;98151.56;2607159;28;20049;-75
2022/06/23 03:46:56;;;;;;;5.03;4.13;;;;;;;14.43;94.54;98154.41;2607989;28;20091;-75
2022/06/23 03:48:22;;;;;;;5.13;4.63;;;;;;;14.40;94.92;98157.19;2607082;28;20446;-77
2022/06/23 03:49:46;;;;;;;5.72;4.38;;;;;;;14.38;95.04;98156.38;2607805;28;20107;-76
2022/06/23 03:51:10;;;;;;;4.70;4.30;;;;;;;14.44;95.40;98164.00;2607357;28;20045;-75
2022/06/23 03:52:36;;;;;;;4.60;4.00;;;;;;;14.48;95.53;98154.19;2607652;28;20134;-75
2022/06/23 03:53:56;;;;;;;6.90;4.38;;;;;;;14.47;95.10;98155.94;2607626;28;20053;-75
2022/06/23 03:55:24;;;;;;;5.38;4.40;;;;;;;14.50;95.09;98153.16;2607700;28;20491;-75
2022/06/23 03:56:56;;;;;;;5.40;4.45;;;;;;;14.45;95.08;98156.94;2607644;28;20123;-76
2022/06/23 03:58:27;;;;;;;5.17;4.57;;;;;;;14.40;95.10;98162.47;2607005;28;20049;-75
2022/06/23 04:00:10;;;;;;;4.82;4.30;;;;;;;14.38;95.15;98162.53;2607450;28;20891;-75
2022/06/23 04:01:47;;;;;;;4.72;4.07;;;;;;;14.35;95.02;98159.19;2607195;28;20392;-75
2022/06/23 04:03:19;;;;;;;4.63;4.13;;;;;;;14.35;95.70;98164.44;2607450;28;20053;-75
2022/06/23 04:04:48;;;;;;;4.93;4.50;;;;;;;14.39;94.79;98158.97;2607000;28;20049;-75
2022/06/23 04:06:19;;;;;;;4.88;4.38;;;;;;;14.40;95.14;98163.31;2607409;28;20182;-75
2022/06/23 04:07:46;;;;;;;5.07;4.57;;;;;;;14.39;95.24;98164.22;2607581;28;20558;-75
2022/06/23 04:09:24;;;;;;;4.95;4.43;;;;;;;14.41;95.49;98165.00;2607278;28;20454;-76
2022/06/23 04:10:44;;;;;;;5.68;3.75;;;;;;;14.56;94.51;98165.19;2606780;28;20056;-75
2022/06/23 04:12:14;;;;;;;6.05;4.22;;;;;;;14.57;93.74;98166.06;2607129;28;20052;-75
2022/06/23 04:13:38;;;;;;;5.53;4.50;;;;;;;14.53;93.68;98167.97;2607194;28;20106;-76
2022/06/23 04:15:03;;;;;;;8.70;4.38;;;;;;;14.60;93.13;98166.75;2607517;28;20479;-75
2022/06/23 04:16:23;;;;;;;4.80;4.30;;;;;;;14.51;93.40;98165.41;2607571;28;20066;-76
2022/06/23 04:17:43;;;;;;;4.93;4.22;;;;;;;14.49;93.79;98169.06;2607049;28;20554;-76
2022/06/23 04:19:06;;;;;;;4.85;4.10;;;;;;;14.45;93.82;98170.13;2607576;28;20539;-75
2022/06/23 04:20:40;;;;;;;4.78;4.07;;;;;;;14.43;94.20;98174.63;2607183;28;20128;-76
2022/06/23 04:22:09;;;;;;;4.85;4.35;;;;;;;14.39;93.89;98174.75;2607539;28;20545;-75
2022/06/23 04:23:32;;;;;;;7.43;4.30;;;;;;;14.44;93.68;98179.81;2607480;28;20107;-75
2022/06/23 04:24:53;;;;;;;5.22;4.10;;;;;;;14.46;93.57;98185.00;2606941;28;20083;-75
2022/06/23 04:26:20;;;;;;;5.50;4.43;;;;;;;14.48;93.74;98178.72;2607186;28;20087;-74
2022/06/23 04:27:40;;;;;;;5.25;3.97;;;;;;;14.50;93.52;98179.50;2607505;28;20110;-74
2022/06/23 04:29:16;;;;;;;5.05;4.20;;;;;;;14.56;93.12;98181.00;2607128;28;20519;-79
2022/06/23 04:30:38;;;;;;;5.97;4.25;;;;;;;14.60;93.81;98189.59;2607064;28;20095;-75
2022/06/23 04:32:09;;;;;;;4.63;4.10;;;;;;;14.64;93.54;98183.25;2607251;28;20752;-74
2022/06/23 04:33:27;;;;;;;5.82;3.88;;;;;;;14.68;93.97;98184.84;2607178;28;20059;-75
2022/06/23 04:35:11;;;;;;;6.90;4.38;;;;;;;14.77;95.16;98180.91;2606042;28;20416;-74
2022/06/23 04:36:30;;;;;;;5.18;4.18;;;;;;;14.91;94.09;98185.50;2606634;28;20045;-74
2022/06/23 04:37:56;;;;;;;4.50;4.10;;;;;;;14.93;93.73;98176.59;2606421;28;20495;-74
2022/06/23 04:39:45;;;;;;;5.65;4.35;;;;;;;14.97;94.17;98177.28;2607095;28;20049;-74
2022/06/23 04:41:27;;;;;;;4.72;3.83;;;;;;;15.10;92.29;98183.66;2607175;28;20053;-75
2022/06/23 04:42:53;;;;;;;4.85;4.25;;;;;;;15.20;90.72;98185.78;2606982;28;20065;-75
2022/06/23 04:44:25;;;;;;;6.20;4.70;;;;;;;15.22;90.68;98187.44;2607140;28;20063;-75
2022/06/23 04:46:02;;;;;;;4.97;4.50;;;;;;;15.19;91.14;98190.22;2606858;28;20049;-76
2022/06/23 04:47:22;;;;;;;4.43;4.03;;;;;;;15.15;91.39;98188.66;2607106;28;20127;-75
2022/06/23 04:48:57;;;;;;;4.90;4.40;;;;;;;15.15;91.78;98193.09;2606923;28;20511;-74
2022/06/23 04:50:31;;;;;;;5.72;4.20;;;;;;;15.21;91.77;98193.66;2606997;28;20053;-76
2022/06/23 04:52:01;;;;;;;6.53;4.53;;;;;;;15.28;91.12;98190.69;2606625;28;20476;-74
2022/06/23 04:53:37;;;;;;;5.05;4.47;;;;;;;15.45;91.56;98190.69;2606782;28;20037;-75
2022/06/23 04:55:06;;;;;;;6.35;4.45;;;;;;;15.64;89.71;98192.34;2606556;28;20479;-74
2022/06/23 04:56:38;;;;;;;7.15;4.60;;;;;;;15.79;88.33;98199.44;2606192;28;20049;-74
2022/06/23 04:57:58;;;;;;;4.70;4.20;;;;;;;15.81;88.77;98199.38;2606607;28;20083;-74
2022/06/23 04:59:31;;;;;;;5.32;4.18;;;;;;;15.83;89.06;98202.78;2606502;28;20083;-74
2022/06/23 05:00:50;;;;;;;4.45;3.90;;;;;;;15.86;88.75;98202.59;2606898;28;20053;-74
2022/06/23 05:02:32;;;;;;;4.15;3.75;;;;;;;15.92;88.54;98207.59;2605839;28;20082;-73
2022/06/23 05:03:55;;;;;;;4.97;4.22;;;;;;;15.97;88.77;98207.34;2606686;28;20608;-73
2022/06/23 05:05:18;;;;;;;4.40;4.00;;;;;;;16.00;88.69;98206.31;2605792;28;20056;-74
2022/06/23 05:06:44;;;;;;;5.53;4.40;;;;;;;16.03;89.15;98212.31;2605624;28;20221;-75
2022/06/23 05:08:25;;;;;;;5.45;4.40;;;;;;;16.12;87.92;98212.72;2606350;28;20438;-76
2022/06/23 05:09:43;;;;;;;6.47;3.97;;;;;;;16.14;87.96;98211.72;2605697;28;20053;-74
2022/06/23 05:11:21;;;;;;;5.68;4.38;;;;;;;16.12;87.75;98205.66;2606407;28;20045;-73
2022/06/23 05:12:41;;;;;;;4.53;4.13;;;;;;;16.24;86.63;98209.41;2605587;28;20053;-73
2022/06/23 05:14:15;;;;;;;4.90;4.18;;;;;;;16.44;86.33;98204.81;2605910;28;20500;-74
2022/06/23 05:15:35;;;;;;;4.57;4.07;;;;;;;16.43;86.38;98211.06;2605198;28;20069;-74
2022/06/23 05:17:01;;;;;;;6.03;4.22;;;;;;;16.43;86.80;98211.06;2604679;28;20571;-73
2022/06/23 05:18:23;;;;;;;5.45;4.40;;;;;;;16.43;87.00;98205.78;2604691;28;20860;-76
2022/06/23 05:19:41;;;;;;;5.07;4.20;;;;;;;16.47;85.84;98205.47;2606296;28;20636;-76
2022/06/23 05:21:08;;;;;;;6.20;4.05;;;;;;;16.48;86.27;98207.22;2599630;28;20112;-75
2022/06/23 05:22:31;;;;;;;4.03;3.63;;;;;;;16.65;85.29;98208.88;2603049;28;20127;-76
2022/06/23 05:23:54;;;;;;;4.38;3.97;;;;;;;16.71;84.70;98206.84;2606115;28;20079;-76
2022/06/23 05:25:16;;;;;;;5.55;4.20;;;;;;;16.80;84.25;98211.59;2606411;28;20052;-75
2022/06/23 05:26:51;;;;;;;7.30;4.55;;;;;;;16.79;84.46;98207.25;2606635;28;20838;-75
2022/06/23 05:28:17;;;;;;;10.48;4.35;;;;;;;16.90;82.93;98204.84;2606514;28;20123;-74
2022/06/23 05:29:42;;;;;;;5.40;3.85;;;;;;;16.99;83.66;98199.97;2606637;28;20057;-73
2022/06/23 05:31:03;;;;;;;5.63;4.20;;;;;;;16.95;83.31;98196.66;2605517;28;20871;-74
2022/06/23 05:32:28;;;;;;;5.43;4.28;;;;;;;16.98;83.91;98200.91;2605638;28;20127;-76
2022/06/23 05:33:48;;;;;;;5.10;4.18;;;;;;;17.03;84.08;98201.53;2605600;28;20386;-74
2022/06/23 05:35:13;;;;;;;6.32;4.03;;;;;;;17.15;83.71;98205.22;2606171;28;20090;-74
2022/06/23 05:36:41;;;;;;;5.88;4.13;;;;;;;17.25;82.49;98206.41;2605459;28;20587;-74
2022/06/23 05:38:38;;;;;;;4.97;3.60;;;;;;;17.27;82.39;98211.59;2605506;28;20060;-73
2022/06/23 05:40:26;;;;;;;6.22;4.32;;;;;;;17.30;82.80;98206.13;2602414;28;20060;-74
2022/06/23 05:41:47;;;;;;;4.50;3.72;;;;;;;17.41;82.94;98211.63;2605099;28;20857;-74
2022/06/23 05:43:04;;;;;;;7.18;3.92;;;;;;;17.47;83.13;98213.06;2606095;28;20057;-75
2022/06/23 05:44:28;;;;;;;6.93;4.40;;;;;;;17.53;81.90;98212.69;2605597;28;20056;-74
2022/06/23 05:45:51;;;;;;;6.45;4.32;;;;;;;17.57;81.39;98213.34;2605634;28;20036;-73
2022/06/23 05:47:12;;;;;;;7.03;4.20;;;;;;;17.64;81.20;98207.59;2605895;28;20594;-81
2022/06/23 05:48:37;;;;;;;5.15;4.07;;;;;;;17.74;80.39;98207.00;2605525;28;20459;-74
2022/06/23 05:49:56;;;;;;;5.28;3.65;;;;;;;17.77;80.78;98209.50;2605911;28;20049;-77
2022/06/23 05:51:20;;;;;;;10.15;4.38;;;;;;;17.78;80.63;98213.84;2606119;28;20407;-73
2022/06/23 05:52:46;;;;;;;5.13;4.25;;;;;;;17.81;79.81;98215.44;2599927;28;20765;-73
2022/06/23 05:54:05;;;;;;;4.13;3.60;;;;;;;17.81;80.52;98218.06;2604488;28;20060;-74
2022/06/23 05:55:31;;;;;;;8.70;4.22;;;;;;;17.92;80.27;98220.91;2606253;28;20454;-74
2022/06/23 05:56:57;;;;;;;5.57;4.70;;;;;;;18.10;80.69;98218.13;2605152;28;20565;-75
2022/06/23 05:58:32;;;;;;;4.30;3.90;;;;;;;18.20;79.11;98220.09;2605692;28;20048;-74
2022/06/23 06:00:24;;;;;;;5.13;3.92;;;;;;;18.31;79.12;98221.22;2606277;28;20104;-74
2022/06/23 06:01:46;;;;;;;5.18;3.88;;;;;;;18.40;78.41;98220.63;2605736;28;20606;-77
2022/06/23 06:03:02;;;;;;;5.72;4.40;;;;;;;18.48;78.29;98221.00;2606196;28;20053;-74
2022/06/23 06:04:43;;;;;;;12.52;4.15;;;;;;;18.62;77.86;98227.19;2606072;28;20707;-74
2022/06/23 06:06:01;;;;;;;8.38;3.83;;;;;;;18.67;77.60;98218.97;2604620;28;20053;-74
2022/06/23 06:07:20;;;;;;;11.10;4.28;;;;;;;18.70;77.24;98224.88;2606327;28;20049;-74
2022/06/23 06:10:41;;;;;;;4.47;3.65;;;;;;;18.99;76.77;98214.19;2606021;28;20211;-74
2022/06/23 06:12:00;;;;;;;4.40;3.70;;;;;;;19.07;75.91;98211.06;2606472;28;20053;-73
2022/06/23 06:13:23;;;;;;;3.95;3.45;;;;;;;19.09;76.01;98226.84;2606145;28;20052;-74
2022/06/23 06:14:48;;;;;;;7.55;4.07;;;;;;;19.24;74.92;98219.69;2606244;28;20053;-74
2022/06/23 06:16:04;;;;;;;8.80;4.25;;;;;;;19.35;74.98;98219.81;2606498;28;20053;-74
2022/06/23 06:17:23;;;;;;;10.52;3.83;;;;;;;19.40;74.50;98219.47;2605980;28;20554;-73
2022/06/23 06:18:42;;;;;;;7.07;4.47;;;;;;;19.44;73.97;98223.66;2606210;28;20485;-74
2022/06/23 06:20:03;;;;;;;6.45;3.90;;;;;;;19.46;74.07;98219.06;2606236;28;20052;-74
2022/06/23 06:21:22;;;;;;;6.72;4.00;;;;;;;19.50;73.87;98223.22;2606157;28;20060;-76
2022/06/23 06:22:55;;;;;;;4.50;3.90;;;;;;;19.55;73.74;98222.91;2605282;28;20056;-74
2022/06/23 06:24:34;;;;;;;6.90;4.18;;;;;;;19.58;73.45;98218.25;2606126;28;20052;-74
2022/06/23 06:25:50;;;;;;;4.53;3.80;;;;;;;19.64;73.60;98218.75;2605991;28;20087;-74
2022/06/23 06:27:11;;;;;;;7.57;3.75;;;;;;;19.78;73.32;98221.31;2606108;28;20055;-75
2022/06/23 06:28:32;;;;;;;5.18;4.20;;;;;;;19.88;71.89;98225.03;2606409;28;20565;-74
2022/06/23 06:29:49;;;;;;;5.63;3.85;;;;;;;19.94;72.10;98220.25;2605763;28;20403;-74
2022/06/23 06:31:33;;;;;;;5.45;3.90;;;;;;;20.04;72.02;98223.97;2605805;28;20053;-75
2022/06/23 06:32:50;;;;;;;5.35;4.00;;;;;;;20.12;72.00;98221.63;2605760;28;20064;-74
2022/06/23 06:34:31;;;;;;;5.55;4.13;;;;;;;20.22;71.76;98226.28;2605406;28;20118;-76
2022/06/23 06:35:54;;;;;;;4.18;3.78;;;;;;;20.37;71.14;98224.34;2605917;28;20053;-77
2022/06/23 06:37:14;;;;;;;7.85;4.15;;;;;;;20.43;70.97;98222.09;2604857;28;20053;-74
2022/06/23 06:38:30;;;;;;;5.28;4.13;;;;;;;20.57;70.44;98220.25;2605448;28;20103;-74
2022/06/23 06:39:50;;;;;;;4.65;4.18;;;;;;;20.70;69.89;98221.03;2606064;28;20496;-74
2022/06/23 06:41:06;;;;;;;5.25;4.10;;;;;;;20.78;70.58;98224.94;2605972;28;21034;-76
2022/06/23 06:42:29;;;;;;;4.63;4.20;;;;;;;20.86;69.78;98222.59;2606136;28;20048;-74
2022/06/23 06:43:45;;;;;;;5.57;3.90;;;;;;;20.94;69.40;98228.19;2605985;28;20053;-74
2022/06/23 06:45:05;;;;;;;5.95;4.05;;;;;;;21.00;69.61;98226.88;2606148;28;20054;-74
2022/06/23 06:46:21;;;;;;;7.10;4.22;;;;;;;21.06;70.30;98226.44;2606203;28;20144;-74
2022/06/23 06:47:39;;;;;;;5.40;3.97;;;;;;;21.08;69.04;98229.81;2605974;28;20052;-75
2022/06/23 06:48:55;;;;;;;8.13;4.38;;;;;;;21.24;68.82;98224.19;2605712;28;20235;-74
2022/06/23 06:50:30;;;;;;;4.75;4.25;;;;;;;21.33;68.06;98222.66;2605875;28;20055;-74
2022/06/23 06:51:48;;;;;;;4.70;4.25;;;;;;;21.32;67.74;98226.28;2605886;28;20071;-75
2022/06/23 06:53:12;;;;;;;4.85;4.20;;;;;;;21.41;67.67;98211.41;2606066;28;20053;-74
2022/06/23 06:54:40;;;;;;;4.80;4.35;;;;;;;21.45;66.48;98210.19;2605918;28;20041;-74
2022/06/23 06:56:04;;;;;;;4.57;4.18;;;;;;;21.47;66.99;98218.09;2606178;28;20068;-75
2022/06/23 06:57:30;;;;;;;4.70;4.30;;;;;;;21.58;66.42;98223.41;2605848;28;20053;-74
2022/06/23 06:59:24;;;;;;;5.18;4.20;;;;;;;21.69;65.76;98220.81;2605794;28;20049;-75
2022/06/23 07:00:48;;;;;;;4.63;4.05;;;;;;;21.70;63.95;98230.50;2605609;28;20159;-74